Etusivu
METAR-TAF:

METAR-TAF

Lentoasemat :

Reid-Hillview Airport of Santa Clara County

San José, Kalifornia, Yhdysvallat

Leveyspiiri: 37-20N, Pituuspiiri: 121-49W, korkeus merenpinnasta: 41 m

Tämänhetkinen sää

Tämä raportti tehtiin 6 tuntia ja 13 minuuttia sitten, kello 04.47 UTC
Tuuli 5 kn luoteesta
Lämpötila 14°C
Kosteus 82%
Ilmanpaine 1015 hPa
Näkyvyys: 16.1 km
Hajanaisia pilviä 8000 ft:n korkeudessa

METAR: KRHV 160447Z 31005KT 10SM SCT080 14/11 A2996 RMK LAST

Aika: 04:00 (11:00 UTC)


TAF: puuttuu

Säähavainnot ja -ennusteet yli 4000 lentoasemalta (METAR- ja TAF-raportit).

Käytössä olevat sääasemat on merkitty karttaan keltaisilla ja punaisilla pisteillä.

Aseta hiiri pisteen päälle nähdäksesi sääaseman nimen.

Klikkaa sitten nähdäksesi säähavainnot ja -ennusteet.

Kartan vaihtaminen: klikkaa mustalla rastilla varustettuja vihreitä pisteitä, niin voit zoomata sisään; viivalla varustettua vihreää pistettä, niin voit zoomata ulos tai vihreitä nuolia, niin pääset viereisille kartoille.


METAR-TAF: